createdAt,value
2022-12-27T00:02:10.942Z,6.60
2022-12-27T00:04:59.301Z,6.50
2022-12-27T00:07:48.556Z,6.50
2022-12-27T00:10:34.153Z,6.50
2022-12-27T00:13:19.555Z,6.50
2022-12-27T00:16:11.033Z,6.60
2022-12-27T00:18:56.847Z,6.60
2022-12-27T00:21:42.178Z,6.60
2022-12-27T00:24:27.923Z,6.70
2022-12-27T00:27:13.165Z,6.80
2022-12-27T00:29:58.687Z,6.90
2022-12-27T00:32:44.577Z,7.00
2022-12-27T00:35:30.035Z,7.10
2022-12-27T00:38:15.631Z,7.10
2022-12-27T00:41:04.858Z,7.30
2022-12-27T00:43:50.981Z,7.30
2022-12-27T00:46:39.037Z,7.30
2022-12-27T00:49:24.663Z,7.30
2022-12-27T00:52:13.796Z,7.20
2022-12-27T00:54:59.135Z,7.10
2022-12-27T00:57:44.782Z,7.00
2022-12-27T01:00:30.588Z,7.00
2022-12-27T01:03:16.679Z,7.10
2022-12-27T01:06:07.853Z,7.10
2022-12-27T01:08:53.308Z,7.10
2022-12-27T01:11:41.222Z,7.00
2022-12-27T01:14:26.397Z,7.10
2022-12-27T01:17:11.933Z,7.10
2022-12-27T01:19:57.450Z,7.00
2022-12-27T01:22:44.116Z,7.00
2022-12-27T01:25:29.743Z,6.90
2022-12-27T01:28:14.972Z,6.90
2022-12-27T01:31:06.094Z,6.90
2022-12-27T01:33:55.499Z,6.90
2022-12-27T01:36:41.419Z,6.90
2022-12-27T01:39:26.591Z,6.80
2022-12-27T01:42:35.994Z,6.80
2022-12-27T01:45:28.203Z,6.70
2022-12-27T01:48:19.367Z,6.70
2022-12-27T01:51:06.717Z,6.70
2022-12-27T01:53:53.886Z,6.70
2022-12-27T01:56:39.955Z,6.60
2022-12-27T01:59:25.965Z,6.60
2022-12-27T02:02:11.529Z,6.60
2022-12-27T02:04:57.136Z,6.60
2022-12-27T02:08:06.219Z,6.70
2022-12-27T02:10:55.513Z,6.80
2022-12-27T02:13:44.508Z,6.70
2022-12-27T02:16:29.978Z,6.70
2022-12-27T02:19:42.322Z,6.70
2022-12-27T02:23:07.826Z,6.60
2022-12-27T02:26:17.924Z,6.60
2022-12-27T02:29:33.937Z,6.60
2022-12-27T02:33:03.036Z,6.60
2022-12-27T02:36:08.505Z,6.60
2022-12-27T02:38:57.948Z,6.60
2022-12-27T02:42:08.122Z,6.70
2022-12-27T02:45:19.562Z,6.80
2022-12-27T02:48:29.501Z,6.80
2022-12-27T02:51:59.792Z,6.90
2022-12-27T02:55:20.868Z,7.00
2022-12-27T02:58:06.181Z,7.00
2022-12-27T03:01:22.781Z,7.00
2022-12-27T03:04:23.583Z,7.00
2022-12-27T03:07:27.344Z,6.90
2022-12-27T03:10:56.093Z,6.90
2022-12-27T03:14:05.415Z,6.90
2022-12-27T03:16:56.929Z,6.80
2022-12-27T03:20:06.167Z,6.80
2022-12-27T03:23:12.696Z,6.80
2022-12-27T03:25:59.484Z,6.70
2022-12-27T03:29:05.663Z,6.70
2022-12-27T03:32:17.438Z,6.60
2022-12-27T03:35:20.829Z,6.50
2022-12-27T03:38:14.726Z,6.50
2022-12-27T03:41:21.973Z,6.50
2022-12-27T03:44:24.329Z,6.50
2022-12-27T03:47:20.873Z,6.50
2022-12-27T03:50:18.357Z,6.50
2022-12-27T03:53:14.093Z,6.40
2022-12-27T03:56:02.989Z,6.50
2022-12-27T03:58:48.468Z,6.40
2022-12-27T04:01:37.974Z,6.40
2022-12-27T04:04:24.664Z,6.30
2022-12-27T04:07:13.427Z,6.30
2022-12-27T04:10:17.342Z,6.30
2022-12-27T04:13:21.268Z,6.40
2022-12-27T04:16:37.338Z,6.40
2022-12-27T04:19:43.298Z,6.40
2022-12-27T04:22:47.535Z,6.40
2022-12-27T04:25:52.313Z,6.50
2022-12-27T04:28:59.630Z,6.60
2022-12-27T04:32:03.283Z,6.70
2022-12-27T04:34:51.283Z,6.80
2022-12-27T04:37:37.029Z,6.70
2022-12-27T04:40:44.262Z,6.70
2022-12-27T04:43:48.026Z,6.60
2022-12-27T04:46:52.018Z,6.50
2022-12-27T04:49:55.909Z,6.40
2022-12-27T04:52:59.887Z,6.30
2022-12-27T04:55:45.120Z,6.30
2022-12-27T04:58:30.701Z,6.30
2022-12-27T05:01:34.743Z,6.20
2022-12-27T05:04:20.505Z,6.20
2022-12-27T05:07:30.628Z,6.10
2022-12-27T05:10:34.732Z,6.10
2022-12-27T05:13:39.985Z,6.10
2022-12-27T05:16:26.500Z,6.10
2022-12-27T05:19:14.693Z,6.10
2022-12-27T05:22:18.587Z,6.10
2022-12-27T05:25:22.904Z,6.00
2022-12-27T05:28:12.066Z,6.00
2022-12-27T05:31:02.783Z,6.00
2022-12-27T05:33:49.340Z,6.00
2022-12-27T05:36:34.691Z,6.00
2022-12-27T05:39:22.655Z,6.00
2022-12-27T05:42:11.958Z,6.00
2022-12-27T05:44:57.471Z,6.00
2022-12-27T05:47:45.708Z,6.00
2022-12-27T05:50:33.520Z,6.10
2022-12-27T05:53:30.810Z,6.10
2022-12-27T05:56:19.784Z,6.10
2022-12-27T05:59:07.911Z,6.10
2022-12-27T06:01:53.469Z,6.10
2022-12-27T06:04:38.931Z,6.00
2022-12-27T06:07:24.511Z,6.10
2022-12-27T06:10:10.809Z,6.00
2022-12-27T06:13:00.308Z,6.10
2022-12-27T06:15:45.793Z,6.10
2022-12-27T06:18:33.695Z,6.10
2022-12-27T06:21:20.903Z,6.10
2022-12-27T06:24:06.441Z,6.00
2022-12-27T06:26:51.717Z,6.00
2022-12-27T06:29:37.259Z,6.10
2022-12-27T06:32:22.363Z,6.10
2022-12-27T06:35:10.451Z,6.00
2022-12-27T06:37:55.707Z,6.00
2022-12-27T06:40:43.418Z,5.90
2022-12-27T06:43:28.925Z,5.90
2022-12-27T06:46:18.198Z,6.00
2022-12-27T06:49:04.556Z,6.00
2022-12-27T06:51:55.704Z,6.00
2022-12-27T06:54:44.453Z,6.00
2022-12-27T06:57:29.830Z,6.00
2022-12-27T07:00:16.117Z,6.10
2022-12-27T07:03:04.304Z,6.10
2022-12-27T07:05:49.721Z,6.10
2022-12-27T07:08:45.435Z,6.00
2022-12-27T07:11:33.882Z,6.00
2022-12-27T07:14:19.046Z,6.00
2022-12-27T07:17:04.611Z,6.00
2022-12-27T07:19:50.094Z,6.00
2022-12-27T07:22:36.498Z,5.90
2022-12-27T07:25:21.655Z,5.90
2022-12-27T07:28:09.845Z,5.90
2022-12-27T07:30:55.136Z,5.90
2022-12-27T07:33:43.234Z,5.90
2022-12-27T07:36:39.967Z,6.00
2022-12-27T07:39:25.188Z,6.10
2022-12-27T07:42:11.082Z,6.30
2022-12-27T07:44:56.496Z,6.30
2022-12-27T07:47:41.820Z,6.30
2022-12-27T07:50:27.785Z,6.20
2022-12-27T07:53:16.133Z,6.20
2022-12-27T07:56:10.653Z,6.20
2022-12-27T07:58:58.975Z,6.20
2022-12-27T08:02:03.012Z,6.10
2022-12-27T08:04:51.544Z,6.20
2022-12-27T08:07:38.400Z,6.20
2022-12-27T08:10:23.893Z,6.10
2022-12-27T08:13:09.585Z,6.10
2022-12-27T08:15:55.842Z,6.10
2022-12-27T08:18:43.668Z,6.10
2022-12-27T08:21:29.152Z,6.00
2022-12-27T08:24:14.692Z,6.00
2022-12-27T08:27:00.121Z,6.00
2022-12-27T08:29:45.711Z,6.00
2022-12-27T08:32:31.299Z,6.00
2022-12-27T08:35:51.060Z,6.00
2022-12-27T08:38:21.880Z,6.00
2022-12-27T08:41:10.183Z,6.00
2022-12-27T08:43:55.727Z,6.00
2022-12-27T08:46:42.873Z,6.00
2022-12-27T08:49:28.093Z,6.00
2022-12-27T08:52:13.648Z,6.10
2022-12-27T08:55:02.057Z,6.10
2022-12-27T08:57:47.317Z,6.20
2022-12-27T09:00:33.156Z,6.20
2022-12-27T09:03:19.780Z,6.20
2022-12-27T09:06:10.379Z,6.20
2022-12-27T09:08:56.406Z,6.20
2022-12-27T09:11:43.741Z,6.20
2022-12-27T09:14:29.309Z,6.20
2022-12-27T09:17:14.989Z,6.20
2022-12-27T09:20:00.590Z,6.30
2022-12-27T09:22:46.041Z,6.40
2022-12-27T09:25:31.722Z,6.50
2022-12-27T09:28:17.334Z,6.50
2022-12-27T09:31:04.195Z,6.60
2022-12-27T09:33:49.740Z,6.60
2022-12-27T09:36:38.851Z,6.60
2022-12-27T09:39:24.336Z,6.60
2022-12-27T09:43:07.584Z,6.60
2022-12-27T09:45:51.867Z,6.60
2022-12-27T09:48:39.804Z,6.60
2022-12-27T09:51:29.268Z,6.60
2022-12-27T09:54:44.285Z,6.60
2022-12-27T09:57:44.234Z,6.70
2022-12-27T10:00:35.203Z,6.70
2022-12-27T10:03:27.172Z,6.70
2022-12-27T10:06:51.054Z,6.80
2022-12-27T10:09:56.826Z,6.80
2022-12-27T10:13:02.535Z,6.80
2022-12-27T10:16:08.585Z,6.90
2022-12-27T10:19:12.709Z,7.00
2022-12-27T10:22:01.106Z,7.00
2022-12-27T10:24:53.643Z,7.10
2022-12-27T10:27:42.205Z,7.10
2022-12-27T10:30:52.136Z,7.20
2022-12-27T10:33:36.448Z,7.30
2022-12-27T10:36:26.429Z,7.30
2022-12-27T10:39:27.324Z,7.30
2022-12-27T10:42:38.921Z,7.30
2022-12-27T10:45:33.305Z,7.40
2022-12-27T10:48:36.377Z,7.60
2022-12-27T10:51:39.487Z,7.70
2022-12-27T10:54:30.967Z,8.00
2022-12-27T10:57:37.017Z,8.20
2022-12-27T11:00:23.531Z,8.50
2022-12-27T11:03:19.163Z,8.50
2022-12-27T11:06:07.329Z,8.60
2022-12-27T11:08:56.730Z,8.70
2022-12-27T11:11:43.900Z,8.90
2022-12-27T11:14:28.943Z,8.90
2022-12-27T11:17:15.082Z,9.10
2022-12-27T11:20:15.370Z,9.30
2022-12-27T11:23:09.823Z,9.40
2022-12-27T11:26:06.623Z,9.70
2022-12-27T11:28:58.399Z,10.10
2022-12-27T11:31:48.543Z,10.60
2022-12-27T11:34:37.504Z,10.90
2022-12-27T11:37:26.229Z,11.20
2022-12-27T11:40:25.340Z,11.30
2022-12-27T11:43:15.442Z,11.00
2022-12-27T11:46:03.875Z,10.70
2022-12-27T11:48:54.673Z,10.50
2022-12-27T11:52:13.616Z,10.40
2022-12-27T11:55:14.163Z,10.30
2022-12-27T11:58:27.690Z,10.30
2022-12-27T12:01:22.159Z,10.20
2022-12-27T12:04:31.711Z,10.30
2022-12-27T12:07:51.333Z,10.20
2022-12-27T12:11:03.930Z,10.10
2022-12-27T12:14:04.593Z,10.10
2022-12-27T12:17:11.699Z,10.20
2022-12-27T12:20:25.184Z,10.40
2022-12-27T12:23:30.376Z,10.60
2022-12-27T12:26:39.210Z,11.10
2022-12-27T12:29:54.222Z,12.00
2022-12-27T12:33:07.026Z,13.10
2022-12-27T12:36:36.476Z,14.40
2022-12-27T12:39:27.548Z,15.10
2022-12-27T12:42:37.289Z,14.70
2022-12-27T12:45:39.093Z,14.00
2022-12-27T12:48:38.927Z,13.40
2022-12-27T12:51:45.268Z,12.90
2022-12-27T12:54:55.849Z,12.40
2022-12-27T12:57:59.178Z,11.80
2022-12-27T13:01:16.619Z,11.50
2022-12-27T13:04:05.196Z,11.10
2022-12-27T13:06:57.096Z,10.80
2022-12-27T13:09:59.901Z,10.50
2022-12-27T13:12:58.418Z,10.20
2022-12-27T13:15:54.461Z,10.10
2022-12-27T13:19:10.966Z,10.00
2022-12-27T13:22:17.066Z,9.90
2022-12-27T13:25:26.097Z,9.70
2022-12-27T13:28:47.844Z,9.60
2022-12-27T13:32:07.352Z,9.60
2022-12-27T13:35:29.901Z,9.60
2022-12-27T13:38:22.309Z,9.60
2022-12-27T13:41:30.985Z,9.50
2022-12-27T13:44:45.106Z,9.40
2022-12-27T13:47:58.278Z,9.40
2022-12-27T13:51:12.980Z,9.40
2022-12-27T13:54:20.056Z,9.30
2022-12-27T13:57:36.929Z,9.30
2022-12-27T14:00:23.741Z,9.30
2022-12-27T14:03:49.009Z,9.30
2022-12-27T14:06:55.867Z,9.20
2022-12-27T14:09:58.007Z,9.20
2022-12-27T14:13:00.388Z,9.20
2022-12-27T14:15:51.586Z,9.20
2022-12-27T14:19:08.720Z,9.30
2022-12-27T14:22:35.017Z,9.30
2022-12-27T14:25:39.737Z,9.30
2022-12-27T14:28:59.994Z,9.30
2022-12-27T14:32:14.854Z,9.40
2022-12-27T14:35:25.003Z,9.30
2022-12-27T14:38:25.861Z,9.30
2022-12-27T14:41:19.871Z,9.20
2022-12-27T14:44:44.265Z,9.20
2022-12-27T14:47:54.474Z,9.10
2022-12-27T14:51:08.145Z,9.10
2022-12-27T14:54:17.067Z,9.10
2022-12-27T14:57:44.705Z,9.10
2022-12-27T15:00:52.516Z,9.10
2022-12-27T15:03:41.835Z,9.00
2022-12-27T15:07:11.744Z,9.10
2022-12-27T15:10:15.663Z,9.10
2022-12-27T15:13:01.257Z,9.00
2022-12-27T15:16:25.890Z,8.90
2022-12-27T15:19:37.381Z,8.90
2022-12-27T15:22:48.584Z,8.80
2022-12-27T15:26:12.589Z,8.90
2022-12-27T15:29:16.419Z,8.80
2022-12-27T15:32:46.984Z,8.80
2022-12-27T15:35:58.830Z,8.90
2022-12-27T15:38:55.186Z,8.90
2022-12-27T15:42:22.152Z,8.80
2022-12-27T15:45:30.938Z,8.90
2022-12-27T15:48:34.915Z,8.80
2022-12-27T15:51:33.180Z,8.80
2022-12-27T15:54:30.478Z,8.90
2022-12-27T15:57:46.880Z,8.90
2022-12-27T16:00:34.520Z,8.90
2022-12-27T16:03:32.386Z,8.90
2022-12-27T16:06:36.283Z,8.90
2022-12-27T16:09:24.971Z,8.90
2022-12-27T16:12:15.619Z,8.90
2022-12-27T16:15:43.205Z,8.80
2022-12-27T16:18:28.736Z,8.80
2022-12-27T16:21:26.703Z,8.90
2022-12-27T16:24:20.844Z,8.90
2022-12-27T16:27:07.453Z,8.90
2022-12-27T16:29:54.637Z,8.90
2022-12-27T16:32:59.027Z,8.80
2022-12-27T16:35:44.884Z,8.80
2022-12-27T16:38:32.933Z,8.80
2022-12-27T16:41:24.465Z,8.80
2022-12-27T16:44:23.151Z,8.70
2022-12-27T16:47:30.364Z,8.60
2022-12-27T16:51:04.002Z,8.60
2022-12-27T16:54:53.323Z,8.50
2022-12-27T16:57:42.055Z,8.60
2022-12-27T17:00:45.109Z,8.50
2022-12-27T17:03:35.586Z,8.60
2022-12-27T17:06:32.684Z,8.60
2022-12-27T17:09:21.879Z,8.70
2022-12-27T17:12:17.901Z,8.70
2022-12-27T17:15:05.523Z,8.70
2022-12-27T17:17:55.097Z,8.70
2022-12-27T17:20:41.430Z,8.60
2022-12-27T17:23:26.545Z,8.60
2022-12-27T17:26:47.289Z,8.50
2022-12-27T17:29:47.887Z,8.60
2022-12-27T17:33:01.029Z,8.60
2022-12-27T17:36:17.369Z,8.50
2022-12-27T17:39:08.893Z,8.50
2022-12-27T17:42:38.083Z,8.50
2022-12-27T17:45:37.000Z,8.50
2022-12-27T17:48:29.530Z,8.50
2022-12-27T17:51:28.493Z,8.50
2022-12-27T17:54:45.119Z,8.50
2022-12-27T17:57:49.572Z,8.60
2022-12-27T18:00:41.604Z,8.60
2022-12-27T18:03:37.069Z,8.60
2022-12-27T18:06:22.789Z,8.70
2022-12-27T18:09:21.818Z,8.70
2022-12-27T18:12:17.563Z,8.50
2022-12-27T18:15:15.800Z,8.60
2022-12-27T18:18:10.005Z,8.50
2022-12-27T18:21:20.640Z,8.50
2022-12-27T18:24:25.135Z,8.50
2022-12-27T18:27:19.107Z,8.40
2022-12-27T18:30:04.855Z,8.40
2022-12-27T18:32:50.072Z,8.40
2022-12-27T18:35:35.655Z,8.40
2022-12-27T18:38:32.432Z,8.30
2022-12-27T18:41:21.402Z,8.40
2022-12-27T18:44:21.577Z,8.30
2022-12-27T18:47:21.495Z,8.30
2022-12-27T18:50:20.633Z,8.30
2022-12-27T18:53:20.940Z,8.20
2022-12-27T18:56:11.784Z,8.20
2022-12-27T18:59:28.013Z,8.10
2022-12-27T19:02:37.137Z,8.10
2022-12-27T19:05:26.946Z,8.20
2022-12-27T19:08:20.043Z,8.10
2022-12-27T19:11:09.769Z,8.10
2022-12-27T19:13:58.829Z,8.10
2022-12-27T19:16:51.184Z,8.10
2022-12-27T19:19:37.109Z,8.20
2022-12-27T19:22:49.583Z,8.20
2022-12-27T19:25:42.178Z,8.20
2022-12-27T19:28:29.621Z,8.20
2022-12-27T19:31:24.613Z,8.20
2022-12-27T19:34:15.909Z,8.20
2022-12-27T19:37:03.735Z,8.20
2022-12-27T19:39:49.333Z,8.10
2022-12-27T19:42:37.545Z,8.20
2022-12-27T19:45:22.777Z,8.20
2022-12-27T19:48:12.105Z,8.20
2022-12-27T19:50:58.375Z,8.30
2022-12-27T19:53:52.315Z,8.20
2022-12-27T19:57:08.185Z,8.20
2022-12-27T19:59:53.935Z,8.20
2022-12-27T20:02:40.746Z,8.20
2022-12-27T20:06:14.774Z,8.30
2022-12-27T20:08:36.413Z,8.30
2022-12-27T20:11:24.646Z,8.30
2022-12-27T20:14:10.569Z,8.40
2022-12-27T20:16:56.061Z,8.40
2022-12-27T20:19:41.515Z,8.40
2022-12-27T20:22:26.943Z,8.40
2022-12-27T20:25:17.431Z,8.50
2022-12-27T20:28:02.871Z,8.50
2022-12-27T20:30:48.778Z,8.50
2022-12-27T20:33:36.865Z,8.50
2022-12-27T20:36:23.698Z,8.50
2022-12-27T20:39:09.722Z,8.50
2022-12-27T20:41:56.259Z,8.60
2022-12-27T20:44:41.616Z,8.60
2022-12-27T20:47:26.882Z,8.60
2022-12-27T20:50:18.720Z,8.70
2022-12-27T20:53:11.419Z,8.70
2022-12-27T20:56:01.290Z,8.60
2022-12-27T20:58:46.444Z,8.60
2022-12-27T21:01:35.305Z,8.60
2022-12-27T21:04:22.405Z,8.70
2022-12-27T21:07:08.459Z,8.70
2022-12-27T21:09:53.948Z,8.70
2022-12-27T21:12:39.262Z,8.70
2022-12-27T21:15:24.920Z,8.60
2022-12-27T21:18:13.088Z,8.70
2022-12-27T21:21:04.909Z,8.70
2022-12-27T21:23:50.724Z,8.80
2022-12-27T21:26:38.334Z,8.80
2022-12-27T21:29:24.259Z,8.80
2022-12-27T21:32:09.680Z,8.80
2022-12-27T21:34:55.293Z,8.80
2022-12-27T21:37:45.809Z,8.80
2022-12-27T21:40:31.534Z,8.80
2022-12-27T21:43:17.005Z,8.80
2022-12-27T21:46:20.576Z,8.80
2022-12-27T21:49:13.579Z,8.80
2022-12-27T21:51:59.242Z,8.80
2022-12-27T21:54:44.892Z,8.90
2022-12-27T21:57:30.172Z,8.60
2022-12-27T22:00:21.791Z,8.50
2022-12-27T22:03:07.425Z,8.30
2022-12-27T22:05:53.169Z,8.30
2022-12-27T22:08:42.356Z,8.20
2022-12-27T22:11:30.083Z,8.10
2022-12-27T22:14:23.349Z,8.10
2022-12-27T22:17:13.217Z,8.10
2022-12-27T22:20:01.695Z,8.10
2022-12-27T22:22:47.422Z,8.10
2022-12-27T22:25:32.878Z,8.10
2022-12-27T22:28:21.007Z,8.00
2022-12-27T22:31:14.665Z,8.10
2022-12-27T22:34:00.665Z,8.10
2022-12-27T22:36:49.647Z,8.10
2022-12-27T22:39:38.687Z,8.10
2022-12-27T22:42:26.212Z,8.10
2022-12-27T22:45:24.195Z,8.10
2022-12-27T22:48:09.843Z,8.10
2022-12-27T22:50:55.101Z,8.20
2022-12-27T22:53:41.106Z,8.20
2022-12-27T22:56:32.687Z,8.20
2022-12-27T22:59:20.884Z,8.30
2022-12-27T23:02:06.481Z,8.30
2022-12-27T23:04:52.087Z,8.30
2022-12-27T23:08:04.285Z,8.30
2022-12-27T23:10:48.581Z,8.30
2022-12-27T23:13:34.778Z,8.30
2022-12-27T23:16:20.068Z,8.30
2022-12-27T23:19:06.680Z,8.20
2022-12-27T23:21:53.421Z,8.30
2022-12-27T23:24:38.917Z,8.30
2022-12-27T23:27:24.615Z,8.30
2022-12-27T23:30:10.888Z,8.30
2022-12-27T23:32:56.463Z,8.30
2022-12-27T23:35:41.910Z,8.30
2022-12-27T23:38:33.452Z,8.30
2022-12-27T23:41:22.536Z,8.30
2022-12-27T23:44:07.938Z,8.30
2022-12-27T23:46:53.318Z,8.30
2022-12-27T23:49:41.397Z,8.30
2022-12-27T23:52:27.045Z,8.30
2022-12-27T23:55:12.597Z,8.30
2022-12-27T23:57:57.857Z,8.30
